createdAt,value
2018-02-25T00:00:28.606Z,41.30
2018-02-25T00:02:56.281Z,41.30
2018-02-25T00:05:23.908Z,42.20
2018-02-25T00:07:52.249Z,41.60
2018-02-25T00:10:19.885Z,41.60
2018-02-25T00:12:47.532Z,41.70
2018-02-25T00:15:15.186Z,41.40
2018-02-25T00:17:42.836Z,41.50
2018-02-25T00:20:10.466Z,41.60
2018-02-25T00:22:38.118Z,41.60
2018-02-25T00:25:05.713Z,42.30
2018-02-25T00:27:34.124Z,42.50
2018-02-25T00:30:02.482Z,42.50
2018-02-25T00:32:30.894Z,42.90
2018-02-25T00:34:58.502Z,42.90
2018-02-25T00:37:26.145Z,42.60
2018-02-25T00:39:53.765Z,42.40
2018-02-25T00:42:21.407Z,42.40
2018-02-25T00:44:49.086Z,42.70
2018-02-25T00:47:16.682Z,43.10
2018-02-25T00:49:44.313Z,43.20
2018-02-25T00:52:11.949Z,43.00
2018-02-25T00:54:40.362Z,43.10
2018-02-25T00:57:08.023Z,43.00
2018-02-25T00:59:35.623Z,43.40
2018-02-25T01:02:04.281Z,43.50
2018-02-25T01:04:31.921Z,43.80
2018-02-25T01:06:59.596Z,43.80
2018-02-25T01:09:27.221Z,43.70
2018-02-25T01:11:54.908Z,43.90
2018-02-25T01:14:23.494Z,44.50
2018-02-25T01:16:51.198Z,44.30
2018-02-25T01:19:18.890Z,44.60
2018-02-25T01:21:46.556Z,44.60
2018-02-25T01:24:14.954Z,44.90
2018-02-25T01:26:42.575Z,44.70
2018-02-25T01:29:10.218Z,44.60
2018-02-25T01:31:37.900Z,45.00
2018-02-25T01:34:06.326Z,45.40
2018-02-25T01:36:33.898Z,45.30
2018-02-25T01:39:01.538Z,45.90
2018-02-25T01:41:29.136Z,45.80
2018-02-25T01:43:56.723Z,45.60
2018-02-25T01:46:24.347Z,45.40
2018-02-25T01:48:51.961Z,45.50
2018-02-25T01:51:20.831Z,46.10
2018-02-25T01:53:48.724Z,45.80
2018-02-25T01:56:17.118Z,46.30
2018-02-25T01:58:45.536Z,46.20
2018-02-25T02:01:13.205Z,46.10
2018-02-25T02:03:40.863Z,46.10
2018-02-25T02:06:08.635Z,46.80
2018-02-25T02:08:36.263Z,46.30
2018-02-25T02:11:05.996Z,46.10
2018-02-25T02:13:35.974Z,46.40
2018-02-25T02:16:05.771Z,46.60
2018-02-25T02:18:35.675Z,46.60
2018-02-25T02:21:05.813Z,47.00
2018-02-25T02:23:35.744Z,47.50
2018-02-25T02:26:05.709Z,46.70
2018-02-25T02:28:35.666Z,46.70
2018-02-25T02:31:03.335Z,46.50
2018-02-25T02:33:31.702Z,47.30
2018-02-25T02:36:00.153Z,47.40
2018-02-25T02:38:27.823Z,47.20
2018-02-25T02:40:55.686Z,46.80
2018-02-25T02:43:23.336Z,47.00
2018-02-25T02:45:53.108Z,47.50
2018-02-25T02:48:20.855Z,47.20
2018-02-25T02:50:48.517Z,47.30
2018-02-25T02:53:16.282Z,47.80
2018-02-25T02:55:44.710Z,47.70
2018-02-25T02:58:12.322Z,47.50
2018-02-25T03:00:40.700Z,48.10
2018-02-25T03:03:09.125Z,48.40
2018-02-25T03:05:36.828Z,48.20
2018-02-25T03:08:04.458Z,48.10
2018-02-25T03:10:32.078Z,48.30
2018-02-25T03:12:59.727Z,48.30
2018-02-25T03:15:27.364Z,48.60
2018-02-25T03:17:55.046Z,48.40
2018-02-25T03:20:23.453Z,48.60
2018-02-25T03:22:52.510Z,48.50
2018-02-25T03:25:20.286Z,48.50
2018-02-25T03:27:47.915Z,49.50
2018-02-25T03:30:15.602Z,49.60
2018-02-25T03:32:43.234Z,49.10
2018-02-25T03:35:12.907Z,49.80
2018-02-25T03:37:40.546Z,49.60
2018-02-25T03:40:08.973Z,50.00
2018-02-25T03:42:36.639Z,49.90
2018-02-25T03:45:04.253Z,50.00
2018-02-25T03:47:33.159Z,50.00
2018-02-25T03:50:01.648Z,50.00
2018-02-25T03:52:29.343Z,49.70
2018-02-25T03:54:56.923Z,50.10
2018-02-25T03:57:24.559Z,50.10
2018-02-25T03:59:52.196Z,50.30
2018-02-25T04:02:19.795Z,50.50
2018-02-25T04:04:47.443Z,51.20
2018-02-25T04:07:16.971Z,51.20
2018-02-25T04:09:44.622Z,51.30
2018-02-25T04:12:12.254Z,51.50
2018-02-25T04:14:39.974Z,51.70
2018-02-25T04:17:07.584Z,51.40
2018-02-25T04:19:35.178Z,51.60
2018-02-25T04:22:02.822Z,52.20
2018-02-25T04:24:30.576Z,52.30
2018-02-25T04:26:58.185Z,52.50
2018-02-25T04:29:26.633Z,52.30
2018-02-25T04:31:54.231Z,52.10
2018-02-25T04:34:24.866Z,52.10
2018-02-25T04:36:52.699Z,52.00
2018-02-25T04:39:20.291Z,52.30
2018-02-25T04:41:48.714Z,52.30
2018-02-25T04:44:16.332Z,52.10
2018-02-25T04:46:44.752Z,52.60
2018-02-25T04:49:15.743Z,52.50
2018-02-25T04:51:43.382Z,51.90
2018-02-25T04:54:10.998Z,52.20
2018-02-25T04:56:39.408Z,52.60
2018-02-25T04:59:07.046Z,52.40
2018-02-25T05:01:34.649Z,52.60
2018-02-25T05:04:02.314Z,52.70
2018-02-25T05:06:29.938Z,52.60
2018-02-25T05:08:58.451Z,52.60
2018-02-25T05:11:26.136Z,52.40
2018-02-25T05:13:53.779Z,52.40
2018-02-25T05:16:21.400Z,52.40
2018-02-25T05:18:49.009Z,52.40
2018-02-25T05:21:16.665Z,52.70
2018-02-25T05:23:47.398Z,52.80
2018-02-25T05:26:15.026Z,53.60
2018-02-25T05:28:42.688Z,53.20
2018-02-25T05:31:10.290Z,52.50
2018-02-25T05:33:38.609Z,51.90
2018-02-25T05:36:06.329Z,51.70
2018-02-25T05:38:34.085Z,51.50
2018-02-25T05:41:01.976Z,52.00
2018-02-25T05:43:29.707Z,52.30
2018-02-25T05:45:57.318Z,51.70
2018-02-25T05:48:25.010Z,51.60
2018-02-25T05:50:52.936Z,52.00
2018-02-25T05:53:20.747Z,51.80
2018-02-25T05:55:48.564Z,52.00
2018-02-25T05:58:16.334Z,52.40
2018-02-25T06:00:44.005Z,51.90
2018-02-25T06:03:12.501Z,51.50
2018-02-25T06:05:40.553Z,51.40
2018-02-25T06:08:08.464Z,52.50
2018-02-25T06:10:36.107Z,51.70
2018-02-25T06:13:04.545Z,51.70
2018-02-25T06:15:32.274Z,51.60
2018-02-25T06:18:00.249Z,51.60
2018-02-25T06:20:27.883Z,51.60
2018-02-25T06:22:56.264Z,51.70
2018-02-25T06:25:24.715Z,51.40
2018-02-25T06:27:52.307Z,51.30
2018-02-25T06:30:20.195Z,51.30
2018-02-25T06:32:47.820Z,50.70
2018-02-25T06:35:16.232Z,51.60
2018-02-25T06:37:43.889Z,51.50
2018-02-25T06:40:11.614Z,51.60
2018-02-25T06:42:40.702Z,51.70
2018-02-25T06:45:09.921Z,51.70
2018-02-25T06:47:38.563Z,51.30
2018-02-25T06:50:06.266Z,51.20
2018-02-25T06:52:33.883Z,51.40
2018-02-25T06:55:01.527Z,52.10
2018-02-25T06:57:29.180Z,51.80
2018-02-25T06:59:56.812Z,51.80
2018-02-25T07:02:24.471Z,51.70
2018-02-25T07:04:53.870Z,51.80
2018-02-25T07:07:21.712Z,51.30
2018-02-25T07:09:49.313Z,51.90
2018-02-25T07:12:18.446Z,50.90
2018-02-25T07:14:51.657Z,50.80
2018-02-25T07:17:19.512Z,50.60
2018-02-25T07:19:47.272Z,50.90
2018-02-25T07:22:19.156Z,51.30
2018-02-25T07:24:46.988Z,50.60
2018-02-25T07:27:15.164Z,50.70
2018-02-25T07:29:43.135Z,50.40
2018-02-25T07:32:12.287Z,50.30
2018-02-25T07:34:40.222Z,50.20
2018-02-25T07:37:08.467Z,50.00
2018-02-25T07:39:36.427Z,50.30
2018-02-25T07:42:09.237Z,50.20
2018-02-25T07:44:41.263Z,50.50
2018-02-25T07:47:09.149Z,49.30
2018-02-25T07:49:38.055Z,49.20
2018-02-25T07:52:06.219Z,49.10
2018-02-25T07:54:33.925Z,49.30
2018-02-25T07:57:04.634Z,48.20
2018-02-25T07:59:32.320Z,48.10
2018-02-25T08:01:59.947Z,48.10
2018-02-25T08:04:28.334Z,48.40
2018-02-25T08:06:55.942Z,47.90
2018-02-25T08:09:23.764Z,48.10
2018-02-25T08:11:51.790Z,47.40
2018-02-25T08:14:19.425Z,46.60
2018-02-25T08:16:47.094Z,46.70
2018-02-25T08:19:14.733Z,46.40
2018-02-25T08:21:42.382Z,46.50
2018-02-25T08:24:13.959Z,46.90
2018-02-25T08:26:41.614Z,46.70
2018-02-25T08:29:09.220Z,45.10
2018-02-25T08:31:37.926Z,44.70
2018-02-25T08:34:10.387Z,43.80
2018-02-25T08:36:38.824Z,44.20
2018-02-25T08:39:06.502Z,44.10
2018-02-25T08:41:34.467Z,43.60
2018-02-25T08:44:02.354Z,44.00
2018-02-25T08:46:30.103Z,43.10
2018-02-25T08:48:58.114Z,42.30
2018-02-25T08:51:25.791Z,41.60
2018-02-25T08:53:55.137Z,41.00
2018-02-25T08:56:22.824Z,40.80
2018-02-25T08:58:50.472Z,40.70
2018-02-25T09:01:18.307Z,39.40
2018-02-25T09:03:45.983Z,39.20
2018-02-25T09:06:13.584Z,39.70
2018-02-25T09:08:41.982Z,29.50
2018-02-25T09:11:09.642Z,29.40
2018-02-25T09:13:37.274Z,25.80
2018-02-25T09:16:05.755Z,22.30
2018-02-25T09:18:37.538Z,22.10
2018-02-25T09:21:05.185Z,21.50
2018-02-25T09:23:33.655Z,19.80
2018-02-25T09:26:01.285Z,17.50
2018-02-25T09:28:32.004Z,17.10
2018-02-25T09:30:59.625Z,16.90
2018-02-25T09:33:28.476Z,16.80
2018-02-25T09:35:56.257Z,16.80
2018-02-25T09:38:23.834Z,17.50
2018-02-25T09:40:52.551Z,14.40
2018-02-25T09:43:20.999Z,15.20
2018-02-25T09:45:54.918Z,15.20
2018-02-25T09:48:22.507Z,16.40
2018-02-25T09:50:50.356Z,16.60
2018-02-25T09:53:22.246Z,15.80
2018-02-25T09:55:49.856Z,15.70
2018-02-25T09:58:17.604Z,15.60
2018-02-25T10:00:49.215Z,16.10
2018-02-25T10:03:16.845Z,16.60
2018-02-25T10:05:48.678Z,16.90
2018-02-25T10:08:16.282Z,16.80
2018-02-25T10:10:47.838Z,18.20
2018-02-25T10:13:20.890Z,20.20
2018-02-25T10:15:48.610Z,20.00
2018-02-25T10:18:17.886Z,20.20
2018-02-25T10:20:46.964Z,20.30
2018-02-25T10:23:14.775Z,20.30
2018-02-25T10:25:42.386Z,20.50
2018-02-25T10:28:10.020Z,19.70
2018-02-25T10:30:37.655Z,18.70
2018-02-25T10:33:05.306Z,19.60
2018-02-25T10:35:32.953Z,20.40
2018-02-25T10:38:02.312Z,19.70
2018-02-25T10:40:30.430Z,19.60
2018-02-25T10:42:58.073Z,18.70
2018-02-25T10:45:26.091Z,18.60
2018-02-25T10:47:54.155Z,18.70
2018-02-25T10:50:25.286Z,17.80
2018-02-25T10:52:53.944Z,18.30
2018-02-25T10:55:21.578Z,19.30
2018-02-25T10:57:50.246Z,18.30
2018-02-25T11:00:23.669Z,19.50
2018-02-25T11:02:51.293Z,19.30
2018-02-25T11:05:22.216Z,19.50
2018-02-25T11:07:56.347Z,18.10
2018-02-25T11:10:26.143Z,17.90
2018-02-25T11:13:01.354Z,17.70
2018-02-25T11:15:36.240Z,15.90
2018-02-25T11:18:10.909Z,17.10
2018-02-25T11:23:21.154Z,16.30
2018-02-25T11:25:53.440Z,17.00
2018-02-25T11:28:23.042Z,17.00
2018-02-25T11:30:54.862Z,16.90
2018-02-25T11:33:23.881Z,16.60
2018-02-25T11:35:53.121Z,17.70
2018-02-25T11:38:20.748Z,17.20
2018-02-25T11:40:48.374Z,17.50
2018-02-25T11:43:16.072Z,16.90
2018-02-25T11:45:43.795Z,18.30
2018-02-25T11:48:12.211Z,18.30
2018-02-25T11:50:41.103Z,18.30
2018-02-25T11:53:10.073Z,18.40
2018-02-25T11:55:38.687Z,18.40
2018-02-25T11:58:08.461Z,15.90
2018-02-25T12:00:36.134Z,15.70
2018-02-25T12:03:05.000Z,16.40
2018-02-25T12:05:35.899Z,15.70
2018-02-25T12:08:04.864Z,13.70
2018-02-25T12:10:33.893Z,12.60
2018-02-25T12:13:06.595Z,11.20
2018-02-25T12:15:36.907Z,11.10
2018-02-25T12:18:04.573Z,10.40
2018-02-25T12:20:36.605Z,9.30
2018-02-25T12:23:05.871Z,9.10
2018-02-25T12:25:34.283Z,7.80
2018-02-25T12:28:05.898Z,7.70
2018-02-25T12:30:35.504Z,8.30
2018-02-25T12:33:06.141Z,8.50
2018-02-25T12:35:36.438Z,8.00
2018-02-25T12:38:07.437Z,7.80
2018-02-25T12:40:36.303Z,7.70
2018-02-25T12:43:07.750Z,8.50
2018-02-25T12:45:35.557Z,7.50
2018-02-25T12:48:03.907Z,7.20
2018-02-25T12:50:33.620Z,7.20
2018-02-25T12:53:02.787Z,7.30
2018-02-25T12:55:37.384Z,7.40
2018-02-25T12:58:05.274Z,7.30
2018-02-25T13:00:33.933Z,7.40
2018-02-25T13:03:05.053Z,6.80
2018-02-25T13:05:32.695Z,7.70
2018-02-25T13:08:01.084Z,7.40
2018-02-25T13:10:29.187Z,7.00
2018-02-25T13:12:59.929Z,6.90
2018-02-25T13:15:28.154Z,7.60
2018-02-25T13:17:55.842Z,8.50
2018-02-25T13:20:25.511Z,9.70
2018-02-25T13:22:54.351Z,10.70
2018-02-25T13:25:22.218Z,10.50
2018-02-25T13:27:51.377Z,11.60
2018-02-25T13:30:19.441Z,12.00
2018-02-25T13:32:49.206Z,12.50
2018-02-25T13:35:16.818Z,12.30
2018-02-25T13:37:45.322Z,12.90
2018-02-25T13:40:15.166Z,12.60
2018-02-25T13:42:42.843Z,12.60
2018-02-25T13:45:10.888Z,12.80
2018-02-25T13:47:38.497Z,11.30
2018-02-25T13:50:07.553Z,13.10
2018-02-25T13:52:35.192Z,13.60
2018-02-25T13:55:02.805Z,13.20
2018-02-25T13:57:32.196Z,12.90
2018-02-25T14:00:01.941Z,13.30
2018-02-25T14:02:30.332Z,12.80
2018-02-25T14:04:57.941Z,12.70
2018-02-25T14:07:25.734Z,12.00
2018-02-25T14:09:53.440Z,12.40
2018-02-25T14:12:21.226Z,11.70
2018-02-25T14:14:50.652Z,11.80
2018-02-25T14:17:18.256Z,12.50
2018-02-25T14:19:46.768Z,12.30
2018-02-25T14:22:14.378Z,12.70
2018-02-25T14:24:43.043Z,12.40
2018-02-25T14:27:11.440Z,12.70
2018-02-25T14:29:39.858Z,12.70
2018-02-25T14:32:07.982Z,12.70
2018-02-25T14:34:36.288Z,12.40
2018-02-25T14:37:03.943Z,12.20
2018-02-25T14:39:31.558Z,11.80
2018-02-25T14:41:59.197Z,11.20
2018-02-25T14:44:29.549Z,12.40
2018-02-25T14:46:57.270Z,12.30
2018-02-25T14:49:24.980Z,11.50
2018-02-25T14:51:52.619Z,11.70
2018-02-25T14:54:20.244Z,11.40
2018-02-25T14:56:48.075Z,12.20
2018-02-25T14:59:15.717Z,13.40
2018-02-25T15:01:43.394Z,13.30
2018-02-25T15:04:10.982Z,14.00
2018-02-25T15:06:38.642Z,14.10
2018-02-25T15:09:09.776Z,14.90
2018-02-25T15:11:37.438Z,14.70
2018-02-25T15:14:05.054Z,14.90
2018-02-25T15:16:32.681Z,15.00
2018-02-25T15:19:01.114Z,15.40
2018-02-25T15:21:28.753Z,15.40
2018-02-25T15:23:56.418Z,15.00
2018-02-25T15:26:24.072Z,15.70
2018-02-25T15:28:51.905Z,15.70
2018-02-25T15:31:19.523Z,16.10
2018-02-25T15:33:47.185Z,16.90
2018-02-25T15:36:15.150Z,16.40
2018-02-25T15:38:43.525Z,16.50
2018-02-25T15:41:13.320Z,16.50
2018-02-25T15:43:41.008Z,16.40
2018-02-25T15:46:08.633Z,15.80
2018-02-25T15:48:36.998Z,16.00
2018-02-25T15:51:05.408Z,15.90
2018-02-25T15:53:33.041Z,15.80
2018-02-25T15:56:00.635Z,16.00
2018-02-25T15:58:28.253Z,17.20
2018-02-25T16:00:55.929Z,17.50
2018-02-25T16:03:23.546Z,17.60
2018-02-25T16:05:51.175Z,17.80
2018-02-25T16:08:18.821Z,17.90
2018-02-25T16:10:47.203Z,18.40
2018-02-25T16:13:14.875Z,18.30
2018-02-25T16:15:42.619Z,19.10
2018-02-25T16:18:10.242Z,19.30
2018-02-25T16:20:37.878Z,19.80
2018-02-25T16:23:05.516Z,20.40
2018-02-25T16:25:33.886Z,20.70
2018-02-25T16:28:02.316Z,20.60
2018-02-25T16:30:30.858Z,20.50
2018-02-25T16:32:58.494Z,20.50
2018-02-25T16:35:26.895Z,20.60
2018-02-25T16:37:54.525Z,20.50
2018-02-25T16:40:22.167Z,20.90
2018-02-25T16:42:49.810Z,21.30
2018-02-25T16:45:17.422Z,21.60
2018-02-25T16:47:45.069Z,21.60
2018-02-25T16:50:12.686Z,22.10
2018-02-25T16:52:40.278Z,22.40
2018-02-25T16:55:07.911Z,22.80
2018-02-25T16:57:35.547Z,22.20
2018-02-25T17:00:03.236Z,22.70
2018-02-25T17:02:30.851Z,22.90
2018-02-25T17:04:58.505Z,23.10
2018-02-25T17:07:26.154Z,23.20
2018-02-25T17:09:53.770Z,23.40
2018-02-25T17:12:21.478Z,23.60
2018-02-25T17:14:49.087Z,24.00
2018-02-25T17:17:16.767Z,23.80
2018-02-25T17:19:44.385Z,23.80
2018-02-25T17:22:12.004Z,24.00
2018-02-25T17:24:39.593Z,24.10
2018-02-25T17:27:10.250Z,24.40
2018-02-25T17:29:37.841Z,24.50
2018-02-25T17:32:05.498Z,24.70
2018-02-25T17:34:33.110Z,24.80
2018-02-25T17:37:01.662Z,25.00
2018-02-25T17:39:29.369Z,24.80
2018-02-25T17:41:59.814Z,25.00
2018-02-25T17:44:27.577Z,24.80
2018-02-25T17:46:55.222Z,25.00
2018-02-25T17:49:22.838Z,25.00
2018-02-25T17:51:50.489Z,25.10
2018-02-25T17:54:18.076Z,25.50
2018-02-25T17:56:45.730Z,25.50
2018-02-25T17:59:13.707Z,25.30
2018-02-25T18:01:41.490Z,25.60
2018-02-25T18:04:09.111Z,25.50
2018-02-25T18:06:36.793Z,25.40
2018-02-25T18:09:04.407Z,25.40
2018-02-25T18:11:32.079Z,25.40
2018-02-25T18:14:00.424Z,25.60
2018-02-25T18:16:28.093Z,25.60
2018-02-25T18:18:55.745Z,25.60
2018-02-25T18:21:23.385Z,25.70
2018-02-25T18:23:51.049Z,25.80
2018-02-25T18:26:18.671Z,25.90
2018-02-25T18:28:46.334Z,25.40
2018-02-25T18:31:14.673Z,26.50
2018-02-25T18:33:42.280Z,26.40
2018-02-25T18:36:09.930Z,26.50
2018-02-25T18:38:37.558Z,26.40
2018-02-25T18:41:05.156Z,26.00
2018-02-25T18:43:32.814Z,26.20
2018-02-25T18:46:00.490Z,26.00
2018-02-25T18:48:28.132Z,25.90
2018-02-25T18:50:55.779Z,26.00
2018-02-25T18:53:23.430Z,26.20
2018-02-25T18:55:51.863Z,26.40
2018-02-25T18:58:19.589Z,26.40
2018-02-25T19:00:49.520Z,26.80
2018-02-25T19:03:17.125Z,26.40
2018-02-25T19:05:44.742Z,26.00
2018-02-25T19:08:13.168Z,26.50
2018-02-25T19:10:40.922Z,26.00
2018-02-25T19:13:08.681Z,26.50
2018-02-25T19:15:36.352Z,26.20
2018-02-25T19:18:03.956Z,26.10
2018-02-25T19:20:31.580Z,26.60
2018-02-25T19:22:59.226Z,26.80
2018-02-25T19:25:26.840Z,26.60
2018-02-25T19:27:54.487Z,26.80
2018-02-25T19:30:22.115Z,27.30
2018-02-25T19:32:50.647Z,27.20
2018-02-25T19:35:18.250Z,27.20
2018-02-25T19:37:51.410Z,27.10
2018-02-25T19:40:25.492Z,26.90
2018-02-25T19:42:53.104Z,26.80
2018-02-25T19:45:20.673Z,26.90
2018-02-25T19:47:48.329Z,27.10
2018-02-25T19:50:15.953Z,27.50
2018-02-25T19:52:43.556Z,27.40
2018-02-25T19:55:11.208Z,27.60
2018-02-25T19:57:38.813Z,27.80
2018-02-25T20:00:06.409Z,28.00
2018-02-25T20:02:34.794Z,28.60
2018-02-25T20:05:03.151Z,28.40
2018-02-25T20:07:30.748Z,28.30
2018-02-25T20:09:58.409Z,28.50
2018-02-25T20:12:26.801Z,28.80
2018-02-25T20:14:54.434Z,28.60
2018-02-25T20:17:22.025Z,28.70
2018-02-25T20:19:49.740Z,29.20
2018-02-25T20:22:17.417Z,29.40
2018-02-25T20:24:45.796Z,29.70
2018-02-25T20:27:14.230Z,29.40
2018-02-25T20:29:41.834Z,29.30
2018-02-25T20:32:09.461Z,29.50
2018-02-25T20:34:37.047Z,29.80
2018-02-25T20:37:05.087Z,30.30
2018-02-25T20:39:32.720Z,30.00
2018-02-25T20:42:00.395Z,29.90
2018-02-25T20:44:28.071Z,30.40
2018-02-25T20:46:55.706Z,30.40
2018-02-25T20:49:23.370Z,30.40
2018-02-25T20:51:50.996Z,30.60
2018-02-25T20:54:19.389Z,31.20
2018-02-25T20:56:47.047Z,31.10
2018-02-25T20:59:15.423Z,31.10
2018-02-25T21:01:46.596Z,31.20
2018-02-25T21:04:14.241Z,31.20
2018-02-25T21:06:41.955Z,31.60
2018-02-25T21:09:09.636Z,32.00
2018-02-25T21:11:37.265Z,31.90
2018-02-25T21:14:04.969Z,31.60
2018-02-25T21:16:32.646Z,31.90
2018-02-25T21:19:00.263Z,31.60
2018-02-25T21:21:27.916Z,31.80
2018-02-25T21:23:55.558Z,31.70
2018-02-25T21:26:23.163Z,31.90
2018-02-25T21:28:50.817Z,32.00
2018-02-25T21:31:18.503Z,32.00
2018-02-25T21:33:46.149Z,31.60
2018-02-25T21:39:04.478Z,31.90
2018-02-25T21:41:32.141Z,32.40
2018-02-25T21:44:00.771Z,33.10
2018-02-25T21:46:28.456Z,32.90
2018-02-25T21:48:56.859Z,33.60
2018-02-25T21:51:24.500Z,33.40
2018-02-25T21:53:53.014Z,34.00
2018-02-25T21:56:26.204Z,33.90
2018-02-25T21:58:59.562Z,33.60
2018-02-25T22:01:33.685Z,34.30
2018-02-25T22:04:02.082Z,34.50
2018-02-25T22:06:29.671Z,34.30
2018-02-25T22:08:57.276Z,34.30
2018-02-25T22:11:25.707Z,34.50
2018-02-25T22:13:53.316Z,34.40
2018-02-25T22:16:21.728Z,34.40
2018-02-25T22:18:49.338Z,34.20
2018-02-25T22:21:16.958Z,34.50
2018-02-25T22:23:44.698Z,34.40
2018-02-25T22:26:23.012Z,34.90
2018-02-25T22:28:51.421Z,35.10
2018-02-25T22:31:18.997Z,35.00
2018-02-25T22:33:46.645Z,35.30
2018-02-25T22:36:15.132Z,35.30
2018-02-25T22:38:42.735Z,35.20
2018-02-25T22:41:10.367Z,35.50
2018-02-25T22:43:38.134Z,35.70
2018-02-25T22:46:05.901Z,35.30
2018-02-25T22:48:33.531Z,35.50
2018-02-25T22:51:01.180Z,35.60
2018-02-25T22:53:28.955Z,36.00
2018-02-25T22:55:56.588Z,36.00
2018-02-25T22:58:24.236Z,35.80
2018-02-25T23:00:51.874Z,35.90
2018-02-25T23:03:19.537Z,36.20
2018-02-25T23:05:47.155Z,36.60
2018-02-25T23:08:14.787Z,36.10
2018-02-25T23:10:42.384Z,36.30
2018-02-25T23:13:10.044Z,36.40
2018-02-25T23:15:37.684Z,36.60
2018-02-25T23:18:06.270Z,36.70
2018-02-25T23:20:34.691Z,37.00
2018-02-25T23:23:02.384Z,36.90
2018-02-25T23:25:29.991Z,37.00
2018-02-25T23:27:57.662Z,36.90
2018-02-25T23:30:25.267Z,36.90
2018-02-25T23:32:52.940Z,36.60
2018-02-25T23:35:20.563Z,36.80
2018-02-25T23:37:48.186Z,36.80
2018-02-25T23:40:16.597Z,37.10
2018-02-25T23:42:44.245Z,36.50
2018-02-25T23:45:11.845Z,37.10
2018-02-25T23:47:39.510Z,37.10
2018-02-25T23:50:07.086Z,37.00
2018-02-25T23:52:34.761Z,37.20
2018-02-25T23:55:03.290Z,37.40
2018-02-25T23:57:30.950Z,37.20
2018-02-25T23:59:58.551Z,37.60
